5HZZM HKKE-HKNW
Flight info
| Callsign | 5HZZM |
|---|---|
| Flight time | N/A |
| Altitude | FL070 |
| Route | |
| Aircraft | DHC6/L-VRDW/C |
Departure
| Time | 2026-04-29 14:10 |
|---|---|
| Airport | Keekorok Airport (HKKE) |
Arrival
| Time | N/A |
|---|---|
| Airport | Nairobi Wilson Airport (HKNW) |
| Time | Latitude | Longitude | Altitude | Speed | Heading |
|---|---|---|---|---|---|
| 2026-04-29 14:06 | -1.58628 | 35.25909 | 5542 ft | 0 kts | 245° |
| 2026-04-29 14:07 | -1.58632 | 35.25887 | 5541 ft | 7 kts | 263° |
| 2026-04-29 14:07 | -1.58635 | 35.25810 | 5535 ft | 15 kts | 271° |
| 2026-04-29 14:07 | -1.58627 | 35.25681 | 5523 ft | 22 kts | 270° |
| 2026-04-29 14:07 | -1.58611 | 35.25511 | 5507 ft | 27 kts | 275° |
| 2026-04-29 14:08 | -1.58600 | 35.25302 | 5492 ft | 32 kts | 285° |
| 2026-04-29 14:08 | -1.58590 | 35.25089 | 5478 ft | 20 kts | 243° |
| 2026-04-29 14:08 | -1.58582 | 35.25063 | 5476 ft | 0 kts | 85° |
| 2026-04-29 14:08 | -1.58588 | 35.25131 | 5481 ft | 27 kts | 95° |
| 2026-04-29 14:09 | -1.58611 | 35.25451 | 5503 ft | 63 kts | 94° |
| 2026-04-29 14:09 | -1.58643 | 35.25957 | 5596 ft | 76 kts | 97° |
| 2026-04-29 14:09 | -1.58673 | 35.26483 | 5699 ft | 80 kts | 95° |
| 2026-04-29 14:09 | -1.58499 | 35.27005 | 5844 ft | 86 kts | 58° |
| 2026-04-29 14:10 | -1.57949 | 35.27323 | 5991 ft | 100 kts | 18° |
| 2026-04-29 14:10 | -1.57220 | 35.27260 | 6187 ft | 114 kts | 346° |
| 2026-04-29 14:10 | -1.56512 | 35.26975 | 6321 ft | 127 kts | 339° |
| 2026-04-29 14:10 | -1.55697 | 35.26527 | 6453 ft | 137 kts | 330° |
| 2026-04-29 14:11 | -1.54944 | 35.25950 | 6670 ft | 136 kts | 321° |
| 2026-04-29 14:11 | -1.54238 | 35.25327 | 6881 ft | 136 kts | 321° |
| 2026-04-29 14:11 | -1.53530 | 35.24707 | 7078 ft | 136 kts | 320° |
| 2026-04-29 14:11 | -1.52814 | 35.24076 | 7235 ft | 139 kts | 319° |
| 2026-04-29 14:12 | -1.52086 | 35.23380 | 7244 ft | 151 kts | 317° |
| 2026-04-29 14:12 | -1.51337 | 35.22619 | 7288 ft | 155 kts | 314° |
| 2026-04-29 14:12 | -1.50544 | 35.21845 | 7278 ft | 161 kts | 318° |
| 2026-04-29 14:12 | -1.49729 | 35.21074 | 7273 ft | 161 kts | 317° |
| 2026-04-29 14:13 | -1.48919 | 35.20310 | 7273 ft | 160 kts | 318° |
| 2026-04-29 14:13 | -1.48107 | 35.19542 | 7274 ft | 161 kts | 317° |
| 2026-04-29 14:13 | -1.47304 | 35.18764 | 7275 ft | 161 kts | 321° |
| 2026-04-29 14:13 | -1.46436 | 35.18057 | 7274 ft | 162 kts | 322° |
| 2026-04-29 14:14 | -1.45554 | 35.17340 | 7274 ft | 162 kts | 322° |
| 2026-04-29 14:14 | -1.44679 | 35.16630 | 7273 ft | 162 kts | 322° |
| 2026-04-29 14:14 | -1.43803 | 35.15920 | 7273 ft | 162 kts | 322° |
| 2026-04-29 14:14 | -1.42926 | 35.15208 | 7273 ft | 162 kts | 322° |
| 2026-04-29 14:15 | -1.42051 | 35.14498 | 7273 ft | 162 kts | 322° |
| 2026-04-29 14:15 | -1.41174 | 35.13787 | 7273 ft | 162 kts | 322° |
| 2026-04-29 14:15 | -1.40300 | 35.13078 | 7274 ft | 162 kts | 322° |
| 2026-04-29 14:15 | -1.39429 | 35.12344 | 7283 ft | 162 kts | 314° |
| 2026-04-29 14:16 | -1.38899 | 35.11382 | 7236 ft | 158 kts | 285° |
| 2026-04-29 14:16 | -1.38742 | 35.10317 | 7088 ft | 145 kts | 270° |
| 2026-04-29 14:16 | -1.38737 | 35.09369 | 6796 ft | 130 kts | 265° |
| 2026-04-29 14:16 | -1.38793 | 35.08488 | 6486 ft | 132 kts | 261° |
| 2026-04-29 14:17 | -1.38907 | 35.07580 | 6258 ft | 134 kts | 252° |
| 2026-04-29 14:17 | -1.39448 | 35.06900 | 6034 ft | 124 kts | 196° |
| 2026-04-29 14:17 | -1.40267 | 35.06704 | 5918 ft | 114 kts | 185° |
| 2026-04-29 14:17 | -1.41034 | 35.06620 | 5680 ft | 112 kts | 175° |
| 2026-04-29 14:18 | -1.41737 | 35.06750 | 5595 ft | 95 kts | 141° |
| 2026-04-29 14:18 | -1.41905 | 35.07308 | 5528 ft | 92 kts | 73° |
| 2026-04-29 14:18 | -1.41524 | 35.07828 | 5393 ft | 92 kts | 52° |
| 2026-04-29 14:18 | -1.41214 | 35.08293 | 5301 ft | 79 kts | 71° |
| 2026-04-29 14:19 | -1.41131 | 35.08811 | 5190 ft | 76 kts | 79° |
| 2026-04-29 14:19 | -1.41065 | 35.09359 | 5110 ft | 80 kts | 83° |
| 2026-04-29 14:19 | -1.41016 | 35.09893 | 5086 ft | 71 kts | 81° |
| 2026-04-29 14:19 | -1.40955 | 35.10372 | 5031 ft | 67 kts | 78° |
| 2026-04-29 14:20 | -1.40892 | 35.10779 | 5008 ft | 47 kts | 82° |
| 2026-04-29 14:20 | -1.40879 | 35.10898 | 5011 ft | 0 kts | 82° |
| 2026-04-29 14:21 | -1.40876 | 35.10934 | 5012 ft | 24 kts | 83° |
| 2026-04-29 14:21 | -1.40834 | 35.11263 | 5012 ft | 68 kts | 79° |
| 2026-04-29 14:21 | -1.40776 | 35.11819 | 5079 ft | 86 kts | 84° |
| 2026-04-29 14:21 | -1.40733 | 35.12429 | 5199 ft | 89 kts | 82° |
| 2026-04-29 14:22 | -1.40681 | 35.13060 | 5293 ft | 97 kts | 84° |
| 2026-04-29 14:22 | -1.40601 | 35.13745 | 5448 ft | 99 kts | 81° |
| 2026-04-29 14:22 | -1.40488 | 35.14442 | 5576 ft | 103 kts | 81° |
| 2026-04-29 14:22 | -1.40408 | 35.15163 | 5721 ft | 107 kts | 89° |
| 2026-04-29 14:23 | -1.40421 | 35.15921 | 5895 ft | 109 kts | 91° |
| 2026-04-29 14:23 | -1.40429 | 35.16675 | 6081 ft | 110 kts | 86° |
| 2026-04-29 14:23 | -1.40422 | 35.17461 | 6219 ft | 114 kts | 88° |
| 2026-04-29 14:23 | -1.40376 | 35.18239 | 6421 ft | 111 kts | 83° |
| 2026-04-29 14:24 | -1.40298 | 35.19001 | 6618 ft | 109 kts | 84° |
| 2026-04-29 14:24 | -1.40245 | 35.19776 | 6747 ft | 113 kts | 85° |
| 2026-04-29 14:24 | -1.40193 | 35.20571 | 6889 ft | 115 kts | 83° |
| 2026-04-29 14:24 | -1.40118 | 35.21362 | 7063 ft | 114 kts | 81° |
| 2026-04-29 14:25 | -1.40070 | 35.22149 | 7213 ft | 115 kts | 89° |
| 2026-04-29 14:25 | -1.40047 | 35.22957 | 7353 ft | 115 kts | 87° |
| 2026-04-29 14:25 | -1.40051 | 35.23741 | 7562 ft | 110 kts | 88° |
| 2026-04-29 14:25 | -1.40039 | 35.24503 | 7712 ft | 111 kts | 86° |
| 2026-04-29 14:26 | -1.39985 | 35.25266 | 7869 ft | 110 kts | 83° |
| 2026-04-29 14:26 | -1.39893 | 35.26044 | 7978 ft | 113 kts | 81° |
| 2026-04-29 14:26 | -1.39814 | 35.26832 | 8110 ft | 114 kts | 82° |
| 2026-04-29 14:26 | -1.39746 | 35.27613 | 8270 ft | 111 kts | 82° |
| 2026-04-29 14:27 | -1.39639 | 35.28386 | 8408 ft | 111 kts | 76° |
| 2026-04-29 14:27 | -1.39509 | 35.29145 | 8548 ft | 111 kts | 78° |
| 2026-04-29 14:27 | -1.39418 | 35.29925 | 8666 ft | 112 kts | 83° |
| 2026-04-29 14:28 | -1.39332 | 35.31505 | 8890 ft | 114 kts | 84° |
| 2026-04-29 14:28 | -1.39257 | 35.32295 | 8996 ft | 114 kts | 79° |
| 2026-04-29 14:28 | -1.39129 | 35.33068 | 9117 ft | 113 kts | 80° |
| 2026-04-29 14:28 | -1.39090 | 35.33859 | 9204 ft | 115 kts | 86° |
| 2026-04-29 14:29 | -1.39053 | 35.34652 | 9327 ft | 113 kts | 83° |
| 2026-04-29 14:29 | -1.39000 | 35.35455 | 9420 ft | 115 kts | 84° |
| 2026-04-29 14:29 | -1.38973 | 35.36270 | 9588 ft | 115 kts | 84° |
| 2026-04-29 14:29 | -1.38928 | 35.37079 | 9751 ft | 116 kts | 85° |
| 2026-04-29 14:30 | -1.38894 | 35.37889 | 9909 ft | 115 kts | 86° |
| 2026-04-29 14:30 | -1.38872 | 35.38694 | 10054 ft | 116 kts | 86° |
| 2026-04-29 14:30 | -1.38863 | 35.39511 | 10193 ft | 117 kts | 87° |
| 2026-04-29 14:30 | -1.38848 | 35.40330 | 10344 ft | 117 kts | 84° |
| 2026-04-29 14:31 | -1.38788 | 35.41143 | 10489 ft | 116 kts | 85° |
| 2026-04-29 14:31 | -1.38767 | 35.41956 | 10619 ft | 117 kts | 86° |
| 2026-04-29 14:31 | -1.38733 | 35.42810 | 10625 ft | 126 kts | 85° |
| 2026-04-29 14:31 | -1.38689 | 35.43717 | 10621 ft | 132 kts | 85° |
| 2026-04-29 14:32 | -1.38643 | 35.44651 | 10618 ft | 136 kts | 85° |
| 2026-04-29 14:32 | -1.38597 | 35.45605 | 10617 ft | 138 kts | 85° |
| 2026-04-29 14:32 | -1.38551 | 35.46566 | 10616 ft | 139 kts | 85° |
| 2026-04-29 14:32 | -1.38505 | 35.47542 | 10615 ft | 140 kts | 85° |
| 2026-04-29 14:33 | -1.38460 | 35.48519 | 10615 ft | 140 kts | 86° |
| 2026-04-29 14:33 | -1.38465 | 35.49506 | 10614 ft | 139 kts | 89° |
| 2026-04-29 14:33 | -1.38475 | 35.50485 | 10615 ft | 140 kts | 88° |
| 2026-04-29 14:33 | -1.38483 | 35.51460 | 10615 ft | 140 kts | 89° |
| 2026-04-29 14:34 | -1.38489 | 35.52426 | 10665 ft | 137 kts | 90° |
| 2026-04-29 14:34 | -1.38498 | 35.53383 | 10692 ft | 137 kts | 90° |
| 2026-04-29 14:34 | -1.38506 | 35.54338 | 10696 ft | 138 kts | 90° |
| 2026-04-29 14:34 | -1.38515 | 35.55298 | 10696 ft | 138 kts | 90° |
| 2026-04-29 14:35 | -1.38524 | 35.56270 | 10696 ft | 139 kts | 90° |
| 2026-04-29 14:35 | -1.38534 | 35.57238 | 10696 ft | 139 kts | 90° |
| 2026-04-29 14:35 | -1.38543 | 35.58206 | 10696 ft | 139 kts | 90° |
| 2026-04-29 14:35 | -1.38552 | 35.59176 | 10696 ft | 140 kts | 90° |
| 2026-04-29 14:36 | -1.38561 | 35.60144 | 10696 ft | 140 kts | 90° |
| 2026-04-29 14:36 | -1.38571 | 35.61120 | 10696 ft | 140 kts | 90° |
| 2026-04-29 14:36 | -1.38580 | 35.62092 | 10696 ft | 140 kts | 90° |
| 2026-04-29 14:36 | -1.38590 | 35.63077 | 10696 ft | 140 kts | 90° |
| 2026-04-29 14:37 | -1.38599 | 35.64057 | 10696 ft | 140 kts | 90° |
| 2026-04-29 14:37 | -1.38609 | 35.65035 | 10695 ft | 140 kts | 90° |
| 2026-04-29 14:37 | -1.38618 | 35.66013 | 10697 ft | 140 kts | 90° |
| 2026-04-29 14:37 | -1.38628 | 35.66988 | 10697 ft | 140 kts | 90° |
| 2026-04-29 14:38 | -1.38637 | 35.67968 | 10697 ft | 140 kts | 90° |
| 2026-04-29 14:38 | -1.38647 | 35.68948 | 10697 ft | 140 kts | 90° |
| 2026-04-29 14:38 | -1.38657 | 35.69935 | 10697 ft | 140 kts | 90° |
| 2026-04-29 14:38 | -1.38666 | 35.70917 | 10697 ft | 140 kts | 90° |
| 2026-04-29 14:39 | -1.38676 | 35.71896 | 10697 ft | 140 kts | 90° |
| 2026-04-29 14:39 | -1.38686 | 35.72875 | 10697 ft | 140 kts | 90° |
| 2026-04-29 14:39 | -1.38696 | 35.73858 | 10697 ft | 140 kts | 90° |
| 2026-04-29 14:39 | -1.38705 | 35.74841 | 10697 ft | 140 kts | 90° |
| 2026-04-29 14:40 | -1.38715 | 35.75823 | 10697 ft | 140 kts | 90° |
| 2026-04-29 14:40 | -1.38725 | 35.76810 | 10697 ft | 140 kts | 90° |
| 2026-04-29 14:40 | -1.38735 | 35.77786 | 10697 ft | 140 kts | 90° |
| 2026-04-29 14:40 | -1.38745 | 35.78763 | 10697 ft | 140 kts | 90° |
| 2026-04-29 14:41 | -1.38754 | 35.79742 | 10697 ft | 140 kts | 90° |
| 2026-04-29 14:41 | -1.38764 | 35.80714 | 10697 ft | 140 kts | 90° |
| 2026-04-29 14:41 | -1.38774 | 35.81690 | 10697 ft | 140 kts | 90° |
| 2026-04-29 14:41 | -1.38784 | 35.82663 | 10697 ft | 140 kts | 90° |
| 2026-04-29 14:42 | -1.38794 | 35.83646 | 10697 ft | 140 kts | 90° |
| 2026-04-29 14:42 | -1.38804 | 35.84623 | 10697 ft | 140 kts | 90° |
| 2026-04-29 14:42 | -1.38814 | 35.85601 | 10697 ft | 140 kts | 90° |
| 2026-04-29 14:42 | -1.38824 | 35.86575 | 10697 ft | 140 kts | 90° |
| 2026-04-29 14:43 | -1.38834 | 35.87551 | 10697 ft | 140 kts | 90° |
| 2026-04-29 14:43 | -1.38844 | 35.88526 | 10697 ft | 140 kts | 90° |
| 2026-04-29 14:43 | -1.38854 | 35.89500 | 10697 ft | 140 kts | 90° |
| 2026-04-29 14:43 | -1.38864 | 35.90481 | 10697 ft | 140 kts | 90° |
| 2026-04-29 14:44 | -1.38874 | 35.91459 | 10697 ft | 140 kts | 90° |
| 2026-04-29 14:44 | -1.38884 | 35.92437 | 10697 ft | 140 kts | 90° |
| 2026-04-29 14:44 | -1.38894 | 35.93414 | 10697 ft | 140 kts | 90° |
| 2026-04-29 14:44 | -1.38904 | 35.94389 | 10697 ft | 140 kts | 90° |
| 2026-04-29 14:45 | -1.38914 | 35.95365 | 10697 ft | 140 kts | 90° |
| 2026-04-29 14:45 | -1.38924 | 35.96336 | 10697 ft | 140 kts | 90° |
| 2026-04-29 14:45 | -1.38934 | 35.97319 | 10697 ft | 140 kts | 90° |